Startpagina
METAR-TAF:

METAR-TAF

Vliegvelden :

Greeley-Weld County Airport

Greeley, Colorado, Verenigde Staten

breedte: 40-26N, lengte: 104-38W, hoogte: 1420 m

Actueel weer

Dit bericht is 25 minuten geleden gemaakt, om 14:56 UTC
Wind 5 kt uit het westen
Temperatuur 22°C
Vochtigheid 53%
Druk 1015 hPa
Zicht: 16.1 km

METAR: KGXY 251456Z AUTO 28005KT 10SM 22/12 A2997 RMK AO2 SLP108 T02220117 50005 $

Tijdstip: 09:21 (15:21 UTC)


TAF: ontbreekt

Waarnemingen en weersverwachtingen van meer dan 4000 vliegvelden (METAR en TAF).

De beschikbare stations zijn de gele en rode punten op de kaart.

Ga met uw muis naar het station om de naam te zien.

Klik dan om waarnemingen en weersverwachtingen te zien.

kaart wijzigen: klik op de groene knoppen met een zwart kruis om in te zoomen, op de groene knop met een streepje om uit te zoomen of op de groene pijlen voor aangrenzende kaarten.


METAR-TAF: